createdAt,value
2023-05-03T00:00:21.055Z,9.50
2023-05-03T00:02:48.042Z,9.50
2023-05-03T00:05:15.274Z,9.30
2023-05-03T00:07:43.433Z,9.30
2023-05-03T00:10:13.171Z,9.30
2023-05-03T00:12:40.859Z,9.20
2023-05-03T00:15:08.873Z,9.10
2023-05-03T00:17:36.790Z,9.10
2023-05-03T00:20:07.884Z,9.10
2023-05-03T00:22:34.896Z,9.00
2023-05-03T00:25:01.925Z,9.00
2023-05-03T00:27:29.065Z,9.00
2023-05-03T00:29:55.985Z,9.00
2023-05-03T00:32:23.183Z,8.90
2023-05-03T00:34:57.306Z,8.90
2023-05-03T00:37:24.836Z,8.80
2023-05-03T00:39:52.225Z,8.80
2023-05-03T00:42:19.151Z,8.80
2023-05-03T00:44:45.910Z,8.70
2023-05-03T00:47:12.975Z,8.70
2023-05-03T00:49:41.306Z,8.60
2023-05-03T00:52:09.198Z,8.60
2023-05-03T00:54:36.407Z,8.50
2023-05-03T00:57:04.677Z,8.50
2023-05-03T00:59:32.875Z,8.50
2023-05-03T01:02:00.275Z,8.40
2023-05-03T01:04:27.702Z,8.40
2023-05-03T01:06:57.441Z,8.30
2023-05-03T01:09:33.396Z,8.30
2023-05-03T01:12:12.336Z,8.20
2023-05-03T01:15:03.469Z,8.20
2023-05-03T01:17:36.639Z,8.10
2023-05-03T01:20:08.775Z,8.10
2023-05-03T01:22:41.457Z,8.00
2023-05-03T01:25:12.796Z,8.00
2023-05-03T01:27:41.210Z,8.00
2023-05-03T01:30:11.152Z,7.90
2023-05-03T01:32:50.910Z,7.90
2023-05-03T01:35:23.778Z,7.80
2023-05-03T01:37:51.363Z,7.80
2023-05-03T01:40:19.904Z,7.80
2023-05-03T01:42:48.220Z,7.70
2023-05-03T01:45:15.501Z,7.70
2023-05-03T01:47:42.303Z,7.60
2023-05-03T01:50:09.523Z,7.60
2023-05-03T01:52:36.359Z,7.60
2023-05-03T01:55:03.240Z,7.50
2023-05-03T01:57:29.974Z,7.50
2023-05-03T01:59:56.783Z,7.50
2023-05-03T02:02:23.614Z,7.40
2023-05-03T02:04:50.622Z,7.40
2023-05-03T02:07:17.496Z,7.40
2023-05-03T02:09:44.312Z,7.40
2023-05-03T02:12:11.681Z,7.40
2023-05-03T02:14:38.459Z,7.30
2023-05-03T02:17:08.438Z,7.30
2023-05-03T02:19:35.417Z,7.30
2023-05-03T02:22:02.357Z,7.20
2023-05-03T02:24:29.697Z,7.20
2023-05-03T02:26:56.448Z,7.20
2023-05-03T02:29:23.200Z,7.10
2023-05-03T02:31:49.931Z,7.00
2023-05-03T02:34:16.773Z,7.10
2023-05-03T02:36:43.541Z,7.00
2023-05-03T02:39:10.676Z,7.00
2023-05-03T02:41:37.437Z,7.00
2023-05-03T02:44:04.253Z,6.90
2023-05-03T02:46:31.355Z,6.90
2023-05-03T02:48:58.243Z,6.90
2023-05-03T02:51:25.072Z,6.80
2023-05-03T02:53:51.837Z,6.80
2023-05-03T02:56:18.593Z,6.70
2023-05-03T02:58:46.172Z,6.70
2023-05-03T03:01:12.913Z,6.70
2023-05-03T03:03:39.777Z,6.70
2023-05-03T03:06:06.823Z,6.70
2023-05-03T03:08:33.653Z,6.70
2023-05-03T03:11:00.516Z,6.60
2023-05-03T03:13:27.447Z,6.60
2023-05-03T03:15:54.210Z,6.60
2023-05-03T03:18:21.149Z,6.60
2023-05-03T03:20:47.925Z,6.60
2023-05-03T03:23:14.906Z,6.60
2023-05-03T03:25:42.478Z,6.50
2023-05-03T03:28:09.256Z,6.60
2023-05-03T03:30:36.048Z,6.50
2023-05-03T03:33:02.885Z,6.40
2023-05-03T03:35:30.896Z,6.40
2023-05-03T03:37:57.651Z,6.40
2023-05-03T03:40:24.467Z,6.40
2023-05-03T03:42:51.225Z,6.40
2023-05-03T03:45:18.114Z,6.40
2023-05-03T03:47:44.892Z,6.30
2023-05-03T03:50:11.704Z,6.30
2023-05-03T03:52:38.607Z,6.30
2023-05-03T03:55:06.529Z,6.20
2023-05-03T03:57:33.420Z,6.20
2023-05-03T04:00:01.134Z,6.20
2023-05-03T04:02:28.596Z,6.10
2023-05-03T04:04:55.680Z,6.10
2023-05-03T04:07:22.484Z,6.10
2023-05-03T04:09:49.269Z,6.00
2023-05-03T04:12:16.019Z,6.00
2023-05-03T04:14:42.773Z,6.00
2023-05-03T04:17:09.669Z,5.90
2023-05-03T04:19:38.681Z,5.90
2023-05-03T04:22:05.972Z,5.90
2023-05-03T04:24:32.766Z,5.80
2023-05-03T04:27:02.029Z,5.80
2023-05-03T04:29:28.841Z,5.80
2023-05-03T04:31:55.836Z,5.90
2023-05-03T04:34:22.643Z,5.80
2023-05-03T04:36:49.690Z,5.80
2023-05-03T04:39:16.432Z,5.80
2023-05-03T04:41:43.197Z,5.80
2023-05-03T04:44:10.011Z,5.70
2023-05-03T04:46:36.850Z,5.70
2023-05-03T04:49:03.794Z,5.70
2023-05-03T04:51:31.949Z,5.70
2023-05-03T04:53:59.021Z,5.70
2023-05-03T04:56:26.815Z,5.70
2023-05-03T04:58:53.930Z,5.70
2023-05-03T05:01:26.448Z,5.70
2023-05-03T05:03:53.782Z,5.70
2023-05-03T05:06:20.703Z,5.70
2023-05-03T05:08:47.504Z,5.80
2023-05-03T05:11:14.813Z,5.80
2023-05-03T05:13:41.841Z,5.80
2023-05-03T05:16:09.096Z,5.90
2023-05-03T05:18:36.089Z,5.90
2023-05-03T05:21:03.513Z,6.00
2023-05-03T05:23:30.429Z,6.00
2023-05-03T05:26:00.584Z,6.00
2023-05-03T05:28:28.476Z,6.00
2023-05-03T05:30:55.419Z,6.00
2023-05-03T05:33:22.796Z,6.00
2023-05-03T05:35:49.671Z,6.00
2023-05-03T05:38:17.575Z,6.00
2023-05-03T05:40:44.534Z,6.10
2023-05-03T05:43:11.334Z,6.10
2023-05-03T05:45:38.301Z,6.10
2023-05-03T05:48:05.931Z,6.10
2023-05-03T05:50:32.964Z,6.20
2023-05-03T05:52:59.711Z,6.20
2023-05-03T05:55:26.505Z,6.20
2023-05-03T05:57:53.382Z,6.20
2023-05-03T06:00:21.570Z,6.30
2023-05-03T06:02:48.995Z,6.30
2023-05-03T06:05:16.201Z,6.30
2023-05-03T06:07:43.078Z,6.40
2023-05-03T06:10:10.184Z,6.40
2023-05-03T06:12:37.012Z,6.50
2023-05-03T06:15:04.697Z,6.60
2023-05-03T06:17:31.714Z,6.60
2023-05-03T06:19:58.589Z,6.60
2023-05-03T06:22:25.623Z,6.60
2023-05-03T06:24:52.908Z,6.70
2023-05-03T06:27:19.678Z,6.70
2023-05-03T06:29:48.009Z,6.70
2023-05-03T06:32:14.782Z,6.80
2023-05-03T06:34:41.677Z,6.80
2023-05-03T06:37:08.622Z,6.90
2023-05-03T06:39:35.413Z,6.90
2023-05-03T06:42:02.702Z,7.00
2023-05-03T06:44:29.481Z,7.00
2023-05-03T06:46:56.344Z,7.10
2023-05-03T06:49:23.195Z,7.10
2023-05-03T06:51:49.985Z,7.30
2023-05-03T06:54:16.855Z,7.20
2023-05-03T06:56:43.586Z,7.30
2023-05-03T06:59:10.318Z,7.30
2023-05-03T07:01:37.293Z,7.30
2023-05-03T07:04:04.248Z,7.40
2023-05-03T07:06:37.716Z,7.50
2023-05-03T07:09:11.391Z,7.50
2023-05-03T07:11:40.360Z,7.60
2023-05-03T07:14:07.284Z,7.70
2023-05-03T07:16:34.212Z,7.60
2023-05-03T07:19:01.064Z,7.70
2023-05-03T07:21:29.546Z,7.70
2023-05-03T07:23:56.326Z,7.80
2023-05-03T07:26:23.032Z,7.90
2023-05-03T07:28:50.295Z,8.00
2023-05-03T07:31:17.074Z,8.00
2023-05-03T07:33:43.919Z,8.10
2023-05-03T07:36:11.514Z,8.10
2023-05-03T07:38:38.245Z,8.30
2023-05-03T07:41:05.096Z,8.30
2023-05-03T07:43:31.860Z,8.20
2023-05-03T07:45:58.704Z,8.30
2023-05-03T07:48:25.543Z,8.30
2023-05-03T07:50:52.472Z,8.40
2023-05-03T07:53:19.251Z,8.50
2023-05-03T07:55:46.197Z,8.50
2023-05-03T07:58:13.017Z,8.70
2023-05-03T08:00:39.835Z,8.80
2023-05-03T08:03:06.764Z,9.00
2023-05-03T08:05:36.565Z,9.20
2023-05-03T08:08:04.125Z,9.30
2023-05-03T08:10:31.066Z,9.50
2023-05-03T08:12:57.876Z,9.70
2023-05-03T08:15:24.679Z,9.90
2023-05-03T08:17:51.934Z,10.00
2023-05-03T08:20:18.769Z,10.20
2023-05-03T08:22:46.494Z,10.40
2023-05-03T08:25:13.356Z,10.60
2023-05-03T08:27:40.172Z,10.80
2023-05-03T08:30:07.802Z,11.20
2023-05-03T08:32:34.690Z,11.50
2023-05-03T08:35:01.652Z,11.60
2023-05-03T08:37:28.397Z,11.80
2023-05-03T08:39:55.605Z,12.00
2023-05-03T08:42:23.903Z,12.00
2023-05-03T08:44:52.011Z,12.20
2023-05-03T08:47:18.844Z,12.30
2023-05-03T08:49:45.724Z,12.30
2023-05-03T08:52:14.480Z,12.50
2023-05-03T08:54:41.728Z,12.60
2023-05-03T08:57:14.588Z,12.80
2023-05-03T08:59:48.814Z,13.00
2023-05-03T09:02:16.336Z,13.00
2023-05-03T09:04:43.504Z,12.90
2023-05-03T09:07:11.305Z,13.00
2023-05-03T09:09:38.326Z,13.10
2023-05-03T09:12:05.978Z,13.20
2023-05-03T09:14:42.658Z,13.20
2023-05-03T09:17:17.098Z,13.20
2023-05-03T09:19:54.526Z,13.20
2023-05-03T09:22:23.396Z,13.20
2023-05-03T09:24:58.266Z,13.30
2023-05-03T09:27:26.045Z,13.40
2023-05-03T09:29:53.817Z,13.50
2023-05-03T09:32:22.934Z,13.50
2023-05-03T09:34:49.872Z,13.60
2023-05-03T09:37:16.767Z,13.70
2023-05-03T09:39:45.622Z,13.60
2023-05-03T09:42:13.246Z,13.80
2023-05-03T09:44:51.314Z,14.10
2023-05-03T09:47:25.643Z,14.20
2023-05-03T09:49:52.624Z,14.30
2023-05-03T09:52:19.988Z,14.20
2023-05-03T09:54:47.271Z,14.30
2023-05-03T09:57:15.022Z,14.30
2023-05-03T09:59:42.200Z,14.20
2023-05-03T10:02:09.172Z,14.40
2023-05-03T10:04:44.824Z,14.30
2023-05-03T10:07:14.816Z,14.30
2023-05-03T10:09:46.729Z,14.40
2023-05-03T10:12:17.218Z,14.50
2023-05-03T10:14:46.299Z,14.60
2023-05-03T10:17:47.116Z,14.70
2023-05-03T10:20:45.791Z,14.70
2023-05-03T10:23:14.193Z,14.70
2023-05-03T10:26:13.295Z,14.90
2023-05-03T10:28:40.134Z,15.00
2023-05-03T10:31:07.359Z,15.10
2023-05-03T10:33:37.191Z,15.10
2023-05-03T10:36:10.407Z,15.10
2023-05-03T10:38:37.988Z,15.10
2023-05-03T10:41:06.856Z,15.10
2023-05-03T10:43:33.627Z,15.10
2023-05-03T10:46:09.033Z,15.20
2023-05-03T10:48:36.019Z,15.20
2023-05-03T10:51:29.003Z,15.40
2023-05-03T10:53:55.955Z,15.40
2023-05-03T10:56:24.077Z,15.40
2023-05-03T10:58:51.368Z,15.50
2023-05-03T11:01:19.503Z,15.50
2023-05-03T11:03:57.406Z,15.60
2023-05-03T11:06:33.168Z,15.60
2023-05-03T11:09:00.781Z,15.80
2023-05-03T11:11:27.820Z,15.90
2023-05-03T11:13:55.092Z,15.90
2023-05-03T11:16:23.059Z,15.90
2023-05-03T11:18:51.263Z,16.00
2023-05-03T11:21:18.388Z,16.20
2023-05-03T11:23:45.868Z,16.30
2023-05-03T11:26:13.606Z,16.30
2023-05-03T11:28:44.106Z,16.40
2023-05-03T11:31:12.220Z,16.50
2023-05-03T11:33:39.790Z,16.60
2023-05-03T11:36:09.520Z,16.60
2023-05-03T11:38:38.415Z,16.80
2023-05-03T11:41:18.082Z,16.80
2023-05-03T11:43:49.451Z,16.80
2023-05-03T11:46:22.193Z,17.00
2023-05-03T11:48:49.249Z,17.10
2023-05-03T11:51:22.141Z,17.20
2023-05-03T11:53:49.284Z,17.40
2023-05-03T11:56:18.953Z,17.50
2023-05-03T11:58:53.625Z,17.60
2023-05-03T12:01:23.799Z,17.60
2023-05-03T12:04:10.065Z,17.60
2023-05-03T12:06:38.322Z,17.70
2023-05-03T12:09:14.298Z,17.80
2023-05-03T12:11:44.027Z,17.80
2023-05-03T12:14:11.787Z,18.00
2023-05-03T12:16:52.785Z,18.10
2023-05-03T12:19:25.512Z,18.30
2023-05-03T12:21:59.271Z,18.40
2023-05-03T12:24:38.830Z,18.30
2023-05-03T12:27:08.541Z,18.40
2023-05-03T12:29:35.965Z,18.50
2023-05-03T12:32:04.408Z,18.60
2023-05-03T12:34:35.678Z,18.70
2023-05-03T12:37:06.217Z,18.70
2023-05-03T12:39:34.184Z,18.80
2023-05-03T12:44:34.910Z,18.80
2023-05-03T12:47:03.272Z,19.00
2023-05-03T12:49:30.741Z,19.10
2023-05-03T12:54:33.440Z,19.20
2023-05-03T12:57:08.498Z,19.40
2023-05-03T12:59:41.857Z,19.60
2023-05-03T13:07:14.939Z,19.90
2023-05-03T13:12:20.471Z,20.20
2023-05-03T13:14:48.847Z,20.20
2023-05-03T13:17:16.040Z,20.30
2023-05-03T13:19:44.694Z,20.50
2023-05-03T13:22:13.322Z,20.70
2023-05-03T13:24:41.242Z,20.70
2023-05-03T13:27:08.213Z,20.80
2023-05-03T13:29:34.972Z,20.80
2023-05-03T13:32:01.933Z,21.10
2023-05-03T13:34:29.482Z,21.20
2023-05-03T13:36:56.345Z,21.30
2023-05-03T13:39:23.342Z,21.50
2023-05-03T13:41:50.472Z,21.60
2023-05-03T13:44:17.609Z,21.50
2023-05-03T13:46:44.420Z,21.80
2023-05-03T13:49:11.376Z,21.90
2023-05-03T13:51:38.299Z,22.10
2023-05-03T13:54:06.459Z,22.10
2023-05-03T13:56:33.522Z,22.20
2023-05-03T13:59:00.450Z,22.30
2023-05-03T14:01:28.427Z,22.40
2023-05-03T14:03:56.506Z,22.50
2023-05-03T14:06:23.705Z,22.60
2023-05-03T14:08:51.151Z,22.80
2023-05-03T14:11:19.030Z,22.80
2023-05-03T14:13:56.387Z,23.00
2023-05-03T14:18:56.124Z,23.40
2023-05-03T14:21:22.955Z,23.30
2023-05-03T14:23:52.967Z,23.40
2023-05-03T14:26:20.647Z,23.20
2023-05-03T14:28:47.599Z,23.30
2023-05-03T14:31:14.479Z,23.50
2023-05-03T14:33:41.266Z,23.50
2023-05-03T14:36:08.854Z,23.60
2023-05-03T14:38:36.426Z,23.80
2023-05-03T14:41:03.370Z,23.80
2023-05-03T14:43:30.142Z,23.90
2023-05-03T14:45:56.952Z,23.90
2023-05-03T14:48:23.787Z,24.10
2023-05-03T14:50:51.418Z,24.20
2023-05-03T14:53:18.309Z,24.20
2023-05-03T14:55:45.658Z,24.40
2023-05-03T14:58:15.721Z,24.60
2023-05-03T15:00:42.819Z,24.80
2023-05-03T15:03:11.853Z,25.00
2023-05-03T15:05:46.593Z,24.90
2023-05-03T15:08:15.157Z,24.80
2023-05-03T15:10:44.407Z,24.90
2023-05-03T15:13:12.315Z,24.90
2023-05-03T15:15:40.028Z,25.00
2023-05-03T15:18:08.685Z,25.10
2023-05-03T15:20:35.831Z,25.10
2023-05-03T15:23:03.836Z,25.10
2023-05-03T15:25:31.747Z,25.10
2023-05-03T15:27:59.539Z,25.20
2023-05-03T15:30:28.926Z,25.50
2023-05-03T15:32:55.774Z,25.50
2023-05-03T15:35:22.606Z,25.30
2023-05-03T15:37:49.576Z,25.40
2023-05-03T15:40:16.688Z,25.80
2023-05-03T15:42:43.483Z,26.00
2023-05-03T15:45:10.826Z,26.10
2023-05-03T15:47:37.850Z,26.20
2023-05-03T15:50:06.630Z,26.10
2023-05-03T15:52:34.922Z,26.00
2023-05-03T15:55:01.829Z,26.20
2023-05-03T15:57:30.181Z,26.40
2023-05-03T15:59:57.418Z,26.10
2023-05-03T16:02:24.355Z,26.20
2023-05-03T16:04:51.303Z,26.40
2023-05-03T16:07:18.323Z,26.20
2023-05-03T16:09:46.185Z,26.10
2023-05-03T16:12:12.953Z,26.10
2023-05-03T16:14:39.949Z,26.00
2023-05-03T16:17:06.826Z,26.00
2023-05-03T16:19:33.760Z,26.20
2023-05-03T16:22:00.742Z,26.10
2023-05-03T16:24:28.473Z,26.30
2023-05-03T16:26:55.456Z,26.30
2023-05-03T16:29:22.332Z,26.40
2023-05-03T16:31:49.592Z,26.40
2023-05-03T16:34:16.797Z,26.40
2023-05-03T16:36:44.192Z,26.40
2023-05-03T16:39:13.683Z,26.10
2023-05-03T16:41:41.367Z,26.10
2023-05-03T16:44:08.835Z,26.20
2023-05-03T16:46:37.098Z,26.20
2023-05-03T16:49:04.588Z,26.40
2023-05-03T16:51:31.702Z,26.30
2023-05-03T16:53:59.577Z,26.30
2023-05-03T16:56:29.596Z,26.40
2023-05-03T16:58:56.686Z,26.40
2023-05-03T17:01:23.526Z,26.30
2023-05-03T17:03:50.396Z,26.40
2023-05-03T17:06:18.353Z,26.60
2023-05-03T17:08:45.491Z,26.40
2023-05-03T17:11:13.822Z,26.10
2023-05-03T17:13:42.072Z,25.70
2023-05-03T17:16:10.852Z,25.40
2023-05-03T17:18:38.828Z,25.30
2023-05-03T17:21:06.890Z,25.30
2023-05-03T17:23:35.839Z,25.00
2023-05-03T17:26:04.191Z,24.90
2023-05-03T17:28:32.589Z,24.60
2023-05-03T17:30:59.867Z,24.60
2023-05-03T17:33:26.864Z,24.50
2023-05-03T17:35:55.610Z,24.30
2023-05-03T17:38:23.133Z,24.40
2023-05-03T17:40:50.018Z,24.50
2023-05-03T17:43:17.784Z,24.20
2023-05-03T17:45:45.992Z,24.10
2023-05-03T17:48:13.173Z,24.00
2023-05-03T17:50:40.168Z,23.80
2023-05-03T17:53:08.335Z,23.70
2023-05-03T17:55:36.455Z,23.70
2023-05-03T17:58:03.343Z,23.60
2023-05-03T18:00:30.146Z,23.50
2023-05-03T18:02:57.069Z,23.30
2023-05-03T18:05:24.038Z,23.30
2023-05-03T18:07:51.425Z,23.40
2023-05-03T18:10:18.385Z,23.40
2023-05-03T18:12:45.252Z,23.40
2023-05-03T18:15:12.150Z,23.30
2023-05-03T18:17:39.030Z,23.00
2023-05-03T18:20:06.934Z,22.90
2023-05-03T18:22:33.846Z,22.80
2023-05-03T18:25:02.328Z,22.70
2023-05-03T18:27:29.159Z,22.40
2023-05-03T18:29:56.198Z,22.30
2023-05-03T18:32:23.665Z,22.30
2023-05-03T18:34:52.901Z,22.10
2023-05-03T18:37:20.170Z,21.90
2023-05-03T18:39:48.021Z,21.70
2023-05-03T18:42:16.469Z,21.70
2023-05-03T18:44:43.370Z,21.60
2023-05-03T18:47:12.960Z,21.50
2023-05-03T18:49:40.771Z,21.30
2023-05-03T18:52:07.705Z,21.20
2023-05-03T18:54:34.529Z,21.20
2023-05-03T18:57:01.883Z,21.10
2023-05-03T18:59:28.824Z,20.90
2023-05-03T19:01:55.731Z,20.90
2023-05-03T19:04:22.535Z,20.80
2023-05-03T19:06:49.367Z,20.70
2023-05-03T19:09:16.358Z,20.60
2023-05-03T19:11:43.965Z,20.40
2023-05-03T19:14:10.839Z,20.40
2023-05-03T19:16:38.111Z,20.20
2023-05-03T19:19:07.441Z,20.20
2023-05-03T19:21:37.765Z,20.10
2023-05-03T19:24:05.037Z,20.10
2023-05-03T19:26:31.796Z,20.00
2023-05-03T19:28:58.570Z,19.80
2023-05-03T19:31:25.736Z,19.60
2023-05-03T19:33:52.768Z,19.60
2023-05-03T19:36:19.573Z,19.50
2023-05-03T19:38:46.356Z,19.40
2023-05-03T19:41:13.173Z,19.40
2023-05-03T19:43:40.723Z,19.30
2023-05-03T19:46:07.790Z,19.20
2023-05-03T19:48:34.728Z,19.20
2023-05-03T19:51:02.408Z,19.10
2023-05-03T19:53:29.234Z,19.10
2023-05-03T19:56:00.223Z,19.00
2023-05-03T19:58:27.602Z,18.90
2023-05-03T20:00:54.745Z,18.80
2023-05-03T20:03:22.996Z,18.70
2023-05-03T20:05:50.342Z,18.50
2023-05-03T20:08:17.337Z,18.40
2023-05-03T20:10:46.207Z,18.30
2023-05-03T20:13:13.488Z,18.30
2023-05-03T20:15:41.392Z,18.30
2023-05-03T20:18:08.326Z,18.20
2023-05-03T20:20:35.170Z,18.10
2023-05-03T20:23:02.011Z,18.00
2023-05-03T20:25:28.954Z,17.90
2023-05-03T20:27:55.721Z,17.70
2023-05-03T20:30:22.686Z,17.60
2023-05-03T20:32:49.542Z,17.60
2023-05-03T20:35:16.963Z,17.50
2023-05-03T20:37:43.707Z,17.40
2023-05-03T20:40:11.416Z,17.30
2023-05-03T20:42:38.244Z,17.20
2023-05-03T20:45:05.532Z,17.10
2023-05-03T20:47:32.309Z,17.10
2023-05-03T20:49:59.199Z,16.90
2023-05-03T20:52:25.944Z,16.90
2023-05-03T20:54:52.683Z,16.80
2023-05-03T20:57:19.495Z,16.60
2023-05-03T20:59:46.479Z,16.60
2023-05-03T21:02:13.282Z,16.50
2023-05-03T21:04:40.263Z,16.50
2023-05-03T21:07:07.010Z,16.30
2023-05-03T21:09:33.872Z,16.20
2023-05-03T21:12:01.513Z,16.10
2023-05-03T21:14:28.857Z,16.10
2023-05-03T21:16:55.839Z,16.20
2023-05-03T21:19:22.925Z,16.10
2023-05-03T21:21:49.683Z,16.00
2023-05-03T21:24:16.530Z,15.90
2023-05-03T21:26:43.321Z,15.90
2023-05-03T21:29:10.195Z,15.80
2023-05-03T21:31:37.742Z,15.70
2023-05-03T21:34:05.033Z,15.60
2023-05-03T21:36:32.504Z,15.60
2023-05-03T21:38:59.250Z,15.50
2023-05-03T21:41:26.143Z,15.50
2023-05-03T21:43:52.948Z,15.50
2023-05-03T21:46:19.812Z,15.30
2023-05-03T21:48:46.690Z,15.30
2023-05-03T21:51:21.622Z,15.30
2023-05-03T21:53:49.078Z,15.20
2023-05-03T21:56:15.853Z,15.20
2023-05-03T21:58:45.758Z,15.10
2023-05-03T22:01:17.450Z,14.90
2023-05-03T22:03:44.440Z,14.80
2023-05-03T22:06:11.724Z,14.70
2023-05-03T22:08:38.522Z,14.70
2023-05-03T22:11:07.065Z,14.60
2023-05-03T22:13:34.570Z,14.60
2023-05-03T22:16:08.234Z,14.50
2023-05-03T22:18:35.343Z,14.50
2023-05-03T22:21:02.681Z,14.40
2023-05-03T22:23:29.621Z,14.30
2023-05-03T22:25:56.805Z,14.30
2023-05-03T22:28:23.586Z,14.20
2023-05-03T22:30:50.383Z,14.10
2023-05-03T22:33:17.150Z,14.10
2023-05-03T22:35:43.998Z,14.10
2023-05-03T22:38:10.773Z,14.00
2023-05-03T22:40:37.679Z,14.00
2023-05-03T22:43:04.806Z,14.00
2023-05-03T22:45:31.626Z,13.90
2023-05-03T22:47:58.417Z,13.90
2023-05-03T22:50:25.329Z,13.90
2023-05-03T22:52:52.077Z,13.80
2023-05-03T22:55:19.081Z,13.70
2023-05-03T22:57:46.033Z,13.70
2023-05-03T23:00:13.225Z,13.60
2023-05-03T23:02:40.013Z,13.60
2023-05-03T23:05:07.674Z,13.50
2023-05-03T23:07:34.701Z,13.40
2023-05-03T23:10:03.257Z,13.40
2023-05-03T23:12:30.760Z,13.30
2023-05-03T23:14:57.582Z,13.40
2023-05-03T23:17:24.426Z,13.30
2023-05-03T23:19:51.211Z,13.20
2023-05-03T23:22:18.397Z,13.20
2023-05-03T23:24:45.153Z,13.20
2023-05-03T23:27:13.077Z,13.20
2023-05-03T23:29:40.366Z,13.10
2023-05-03T23:32:07.529Z,13.10
2023-05-03T23:34:34.854Z,13.00
2023-05-03T23:37:01.644Z,13.00
2023-05-03T23:39:28.374Z,13.00
2023-05-03T23:41:55.098Z,12.90
2023-05-03T23:44:21.840Z,12.90
2023-05-03T23:46:48.655Z,12.90
2023-05-03T23:49:15.416Z,12.90
2023-05-03T23:51:42.248Z,12.90
2023-05-03T23:54:09.021Z,12.80
2023-05-03T23:56:35.765Z,12.80
2023-05-03T23:59:03.712Z,12.70
